createdAt,value
2022-12-06T00:02:24.597Z,101616.22
2022-12-06T00:05:26.371Z,101617.97
2022-12-06T00:08:27.915Z,101620.66
2022-12-06T00:11:32.111Z,101615.41
2022-12-06T00:14:33.651Z,101612.78
2022-12-06T00:17:38.781Z,101612.03
2022-12-06T00:20:43.116Z,101612.09
2022-12-06T00:23:47.495Z,101609.53
2022-12-06T00:26:50.261Z,101605.16
2022-12-06T00:29:51.798Z,101608.66
2022-12-06T00:32:53.375Z,101606.88
2022-12-06T00:35:59.720Z,101599.81
2022-12-06T00:39:04.353Z,101598.97
2022-12-06T00:42:06.014Z,101600.75
2022-12-06T00:45:08.505Z,101601.63
2022-12-06T00:48:10.104Z,101605.19
2022-12-06T00:51:12.649Z,101602.56
2022-12-06T00:54:16.015Z,101607.84
2022-12-06T00:57:17.555Z,101606.97
2022-12-06T01:00:19.475Z,101610.50
2022-12-06T01:03:21.920Z,101612.25
2022-12-06T01:06:28.088Z,101599.09
2022-12-06T01:09:31.026Z,101605.28
2022-12-06T01:12:32.595Z,101601.81
2022-12-06T01:15:37.435Z,101597.41
2022-12-06T01:18:39.590Z,101593.91
2022-12-06T01:21:41.187Z,101592.19
2022-12-06T01:24:42.765Z,101596.56
2022-12-06T01:27:44.299Z,101597.41
2022-12-06T01:30:45.850Z,101597.41
2022-12-06T01:33:48.060Z,101592.13
2022-12-06T01:36:50.173Z,101590.41
2022-12-06T01:39:51.747Z,101592.13
2022-12-06T01:42:53.298Z,101593.06
2022-12-06T01:45:55.301Z,101597.44
2022-12-06T01:49:01.499Z,101593.06
2022-12-06T01:52:07.942Z,101600.09
2022-12-06T01:55:13.164Z,101599.25
2022-12-06T01:58:18.644Z,101594.03
2022-12-06T02:01:20.588Z,101587.91
2022-12-06T02:04:23.466Z,101588.75
2022-12-06T02:07:27.372Z,101590.50
2022-12-06T02:10:29.636Z,101584.34
2022-12-06T02:13:32.664Z,101587.00
2022-12-06T02:16:52.254Z,101584.41
2022-12-06T02:19:59.908Z,101584.34
2022-12-06T02:23:19.531Z,101572.94
2022-12-06T02:26:42.175Z,101580.00
2022-12-06T02:30:09.442Z,101573.06
2022-12-06T02:33:26.869Z,101575.72
2022-12-06T02:36:40.632Z,101572.19
2022-12-06T02:39:42.540Z,101567.00
2022-12-06T02:42:50.002Z,101568.81
2022-12-06T02:45:56.775Z,101567.88
2022-12-06T02:49:02.571Z,101560.84
2022-12-06T02:52:04.929Z,101566.94
2022-12-06T02:55:09.839Z,101571.38
2022-12-06T02:58:11.531Z,101564.28
2022-12-06T03:01:17.004Z,101564.28
2022-12-06T03:04:46.600Z,101563.34
2022-12-06T03:07:50.561Z,101559.91
2022-12-06T03:10:57.818Z,101558.19
2022-12-06T03:14:08.934Z,101568.66
2022-12-06T03:17:32.760Z,101561.66
2022-12-06T03:20:42.852Z,101561.78
2022-12-06T03:23:49.046Z,101554.84
2022-12-06T03:26:54.433Z,101561.88
2022-12-06T03:30:00.369Z,101559.22
2022-12-06T03:33:03.683Z,101565.44
2022-12-06T03:36:07.662Z,101566.31
2022-12-06T03:39:10.262Z,101567.19
2022-12-06T03:42:12.320Z,101570.75
2022-12-06T03:45:14.671Z,101565.50
2022-12-06T03:48:41.059Z,101564.63
2022-12-06T03:51:44.653Z,101569.06
2022-12-06T03:54:46.239Z,101567.31
2022-12-06T03:57:47.777Z,101569.13
2022-12-06T04:00:49.351Z,101555.09
2022-12-06T04:03:51.053Z,101560.41
2022-12-06T04:06:52.918Z,101556.03
2022-12-06T04:10:03.218Z,101551.66
2022-12-06T04:13:06.272Z,101551.66
2022-12-06T04:16:28.785Z,101546.47
2022-12-06T04:19:30.472Z,101547.34
2022-12-06T04:22:52.345Z,101544.72
2022-12-06T04:25:53.982Z,101541.25
2022-12-06T04:29:14.498Z,101532.41
2022-12-06T04:32:34.757Z,101536.81
2022-12-06T04:35:54.563Z,101537.69
2022-12-06T04:38:56.111Z,101535.91
2022-12-06T04:42:16.495Z,101535.88
2022-12-06T04:45:18.031Z,101526.19
2022-12-06T04:48:19.559Z,101532.34
2022-12-06T04:51:21.684Z,101532.28
2022-12-06T04:54:23.816Z,101532.25
2022-12-06T04:57:25.348Z,101524.38
2022-12-06T05:00:26.948Z,101531.41
2022-12-06T05:03:28.616Z,101529.56
2022-12-06T05:06:30.365Z,101530.44
2022-12-06T05:09:31.914Z,101530.44
2022-12-06T05:12:33.444Z,101529.56
2022-12-06T05:15:34.968Z,101527.88
2022-12-06T05:18:36.560Z,101522.59
2022-12-06T05:21:38.521Z,101533.13
2022-12-06T05:24:40.070Z,101530.44
2022-12-06T05:27:41.596Z,101525.19
2022-12-06T05:30:43.093Z,101530.44
2022-12-06T05:33:45.318Z,101521.72
2022-12-06T05:36:46.888Z,101517.34
2022-12-06T05:39:48.578Z,101512.94
2022-12-06T05:42:50.167Z,101513.00
2022-12-06T05:45:55.151Z,101518.16
2022-12-06T05:48:56.728Z,101520.81
2022-12-06T05:52:03.623Z,101523.44
2022-12-06T05:55:05.857Z,101526.06
2022-12-06T05:58:07.612Z,101525.09
2022-12-06T06:01:09.763Z,101522.47
2022-12-06T06:04:11.264Z,101529.44
2022-12-06T06:07:12.792Z,101528.56
2022-12-06T06:10:14.582Z,101530.25
2022-12-06T06:13:16.220Z,101525.00
2022-12-06T06:16:17.743Z,101532.91
2022-12-06T06:19:19.632Z,101516.84
2022-12-06T06:22:23.103Z,101522.22
2022-12-06T06:25:24.651Z,101521.19
2022-12-06T06:28:26.195Z,101519.44
2022-12-06T06:31:27.851Z,101525.66
2022-12-06T06:34:29.455Z,101527.56
2022-12-06T06:37:32.452Z,101529.41
2022-12-06T06:40:34.950Z,101534.66
2022-12-06T06:43:36.548Z,101536.50
2022-12-06T06:46:38.349Z,101526.03
2022-12-06T06:49:40.934Z,101520.81
2022-12-06T06:52:42.544Z,101518.19
2022-12-06T06:55:45.862Z,101515.50
2022-12-06T06:58:47.422Z,101526.00
2022-12-06T07:01:49.210Z,101533.03
2022-12-06T07:04:51.050Z,101533.94
2022-12-06T07:07:52.962Z,101539.25
2022-12-06T07:10:54.773Z,101532.41
2022-12-06T07:13:56.760Z,101532.41
2022-12-06T07:16:58.526Z,101521.97
2022-12-06T07:20:00.427Z,101533.47
2022-12-06T07:23:02.664Z,101541.47
2022-12-06T07:26:16.444Z,101537.28
2022-12-06T07:29:17.992Z,101537.94
2022-12-06T07:32:19.556Z,101537.88
2022-12-06T07:35:21.654Z,101540.66
2022-12-06T07:38:23.212Z,101537.28
2022-12-06T07:41:45.061Z,101545.31
2022-12-06T07:45:02.573Z,101549.88
2022-12-06T07:48:05.071Z,101554.41
2022-12-06T07:51:07.446Z,101551.03
2022-12-06T07:54:09.228Z,101550.22
2022-12-06T07:57:10.734Z,101544.16
2022-12-06T08:00:15.264Z,101542.47
2022-12-06T08:03:17.698Z,101547.88
2022-12-06T08:06:19.248Z,101555.84
2022-12-06T08:09:20.856Z,101561.44
2022-12-06T08:12:23.013Z,101568.78
2022-12-06T08:15:24.613Z,101567.84
2022-12-06T08:18:26.191Z,101563.59
2022-12-06T08:21:28.071Z,101561.97
2022-12-06T08:24:29.579Z,101560.28
2022-12-06T08:27:31.324Z,101568.34
2022-12-06T08:30:33.429Z,101566.69
2022-12-06T08:33:35.599Z,101571.19
2022-12-06T08:36:39.220Z,101559.03
2022-12-06T08:39:40.820Z,101565.25
2022-12-06T08:42:43.503Z,101566.19
2022-12-06T08:45:50.389Z,101554.03
2022-12-06T08:48:52.564Z,101561.97
2022-12-06T08:51:54.552Z,101562.06
2022-12-06T08:54:56.158Z,101555.97
2022-12-06T08:57:57.663Z,101557.72
2022-12-06T09:00:59.258Z,101555.16
2022-12-06T09:04:01.862Z,101556.94
2022-12-06T09:07:06.317Z,101563.13
2022-12-06T09:10:11.997Z,101564.88
2022-12-06T09:13:13.579Z,101570.16
2022-12-06T09:16:21.014Z,101568.41
2022-12-06T09:19:22.742Z,101566.66
2022-12-06T09:22:24.546Z,101577.16
2022-12-06T09:25:26.115Z,101570.09
2022-12-06T09:28:29.508Z,101567.44
2022-12-06T09:31:31.178Z,101564.75
2022-12-06T09:34:32.845Z,101562.94
2022-12-06T09:37:34.551Z,101572.53
2022-12-06T09:41:00.978Z,101565.50
2022-12-06T09:44:17.663Z,101569.00
2022-12-06T09:47:45.153Z,101567.25
2022-12-06T09:50:59.014Z,101561.97
2022-12-06T09:54:22.682Z,101556.72
2022-12-06T09:57:30.101Z,101558.41
2022-12-06T10:00:47.152Z,101558.41
2022-12-06T10:04:13.194Z,101560.09
2022-12-06T10:07:23.856Z,101556.56
2022-12-06T10:11:02.740Z,101562.75
2022-12-06T10:14:35.751Z,101553.06
2022-12-06T10:18:04.844Z,101549.53
2022-12-06T10:21:30.129Z,101550.44
2022-12-06T10:25:09.880Z,101545.13
2022-12-06T10:28:25.557Z,101543.34
2022-12-06T10:31:57.042Z,101546.81
2022-12-06T10:35:11.582Z,101537.13
2022-12-06T10:38:23.652Z,101540.63
2022-12-06T10:41:34.045Z,101537.13
2022-12-06T10:44:50.115Z,101535.38
2022-12-06T10:47:55.192Z,101535.38
2022-12-06T10:51:07.617Z,101536.25
2022-12-06T10:54:18.281Z,101539.69
2022-12-06T10:57:32.137Z,101538.75
2022-12-06T11:00:52.608Z,101536.97
2022-12-06T11:04:10.772Z,101521.97
2022-12-06T11:07:18.102Z,101528.94
2022-12-06T11:10:24.489Z,101528.88
2022-12-06T11:13:45.086Z,101526.22
2022-12-06T11:17:03.836Z,101528.00
2022-12-06T11:20:21.284Z,101521.59
2022-12-06T11:23:45.695Z,101516.50
2022-12-06T11:26:53.308Z,101515.53
2022-12-06T11:29:54.862Z,101511.19
2022-12-06T11:32:56.479Z,101506.81
2022-12-06T11:36:02.796Z,101501.41
2022-12-06T11:39:04.961Z,101503.97
2022-12-06T11:42:08.648Z,101500.41
2022-12-06T11:45:21.793Z,101499.34
2022-12-06T11:48:26.069Z,101498.13
2022-12-06T11:51:27.597Z,101501.56
2022-12-06T11:54:39.351Z,101496.31
2022-12-06T11:57:58.550Z,101493.81
2022-12-06T12:01:02.102Z,101495.72
2022-12-06T12:04:26.530Z,101488.78
2022-12-06T12:07:28.392Z,101488.06
2022-12-06T12:10:38.185Z,101489.81
2022-12-06T12:13:50.873Z,101493.34
2022-12-06T12:16:58.590Z,101486.41
2022-12-06T12:20:09.242Z,101486.41
2022-12-06T12:23:24.908Z,101488.19
2022-12-06T12:26:36.824Z,101480.38
2022-12-06T12:29:38.380Z,101478.69
2022-12-06T12:32:39.909Z,101475.19
2022-12-06T12:35:44.998Z,101472.59
2022-12-06T12:38:57.482Z,101469.97
2022-12-06T12:41:59.411Z,101475.25
2022-12-06T12:45:04.422Z,101465.53
2022-12-06T12:48:26.714Z,101462.88
2022-12-06T12:51:37.119Z,101463.78
2022-12-06T12:54:39.120Z,101460.31
2022-12-06T12:57:43.186Z,101458.69
2022-12-06T13:00:47.797Z,101454.38
2022-12-06T13:03:52.964Z,101451.88
2022-12-06T13:06:57.968Z,101457.25
2022-12-06T13:10:07.234Z,101453.91
2022-12-06T13:13:22.545Z,101446.97
2022-12-06T13:16:35.724Z,101449.66
2022-12-06T13:19:42.008Z,101443.59
2022-12-06T13:22:45.487Z,101444.44
2022-12-06T13:26:12.845Z,101427.06
2022-12-06T13:29:20.486Z,101423.41
2022-12-06T13:32:40.715Z,101422.53
2022-12-06T13:35:53.964Z,101422.59
2022-12-06T13:38:56.213Z,101417.41
2022-12-06T13:42:17.123Z,101422.75
2022-12-06T13:45:47.089Z,101420.13
2022-12-06T13:48:50.010Z,101418.44
2022-12-06T13:51:51.907Z,101418.47
2022-12-06T13:54:53.666Z,101419.41
2022-12-06T13:57:55.188Z,101428.25
2022-12-06T14:00:57.258Z,101434.50
2022-12-06T14:04:01.107Z,101436.34
2022-12-06T14:10:14.530Z,101442.81
2022-12-06T14:13:20.896Z,101424.53
2022-12-06T14:16:26.831Z,101423.03
2022-12-06T14:19:28.331Z,101430.28
2022-12-06T14:22:34.611Z,101420.97
2022-12-06T14:25:36.175Z,101426.41
2022-12-06T14:28:37.734Z,101431.25
2022-12-06T14:31:40.816Z,101421.16
2022-12-06T14:34:42.353Z,101422.53
2022-12-06T14:38:01.933Z,101423.97
2022-12-06T14:41:21.842Z,101420.84
2022-12-06T14:44:31.820Z,101416.03
2022-12-06T14:47:34.120Z,101417.25
2022-12-06T14:50:50.864Z,101412.34
2022-12-06T14:53:52.765Z,101416.16
2022-12-06T14:56:54.345Z,101408.59
2022-12-06T15:00:26.683Z,101410.63
2022-12-06T15:03:34.606Z,101410.06
2022-12-06T15:06:37.942Z,101406.88
2022-12-06T15:09:45.407Z,101413.25
2022-12-06T15:12:57.775Z,101411.78
2022-12-06T15:16:08.492Z,101409.34
2022-12-06T15:19:13.007Z,101407.81
2022-12-06T15:22:24.832Z,101404.44
2022-12-06T15:25:26.988Z,101405.44
2022-12-06T15:28:28.578Z,101413.47
2022-12-06T15:31:31.548Z,101413.59
2022-12-06T15:34:37.106Z,101408.47
2022-12-06T15:37:40.381Z,101410.34
2022-12-06T15:40:47.541Z,101399.13
2022-12-06T15:43:49.959Z,101401.91
2022-12-06T15:46:52.584Z,101390.69
2022-12-06T15:49:58.028Z,101396.13
2022-12-06T15:52:59.611Z,101394.44
2022-12-06T15:56:01.147Z,101389.84
2022-12-06T15:59:02.650Z,101383.69
2022-12-06T16:02:04.329Z,101384.66
2022-12-06T16:05:06.203Z,101389.19
2022-12-06T16:08:08.079Z,101387.59
2022-12-06T16:11:12.478Z,101386.03
2022-12-06T16:14:14.783Z,101393.09
2022-12-06T16:17:16.290Z,101377.44
2022-12-06T16:20:33.358Z,101388.09
2022-12-06T16:27:15.076Z,101377.91
2022-12-06T16:30:17.034Z,101378.00
2022-12-06T16:33:21.000Z,101372.81
2022-12-06T16:36:32.434Z,101375.44
2022-12-06T16:39:34.580Z,101381.63
2022-12-06T16:42:36.138Z,101378.16
2022-12-06T16:45:40.435Z,101377.31
2022-12-06T16:48:41.986Z,101380.03
2022-12-06T16:51:43.601Z,101373.94
2022-12-06T16:54:45.371Z,101374.91
2022-12-06T16:57:47.617Z,101377.56
2022-12-06T17:00:49.217Z,101372.34
2022-12-06T17:03:52.587Z,101381.19
2022-12-06T17:06:54.102Z,101373.41
2022-12-06T17:09:55.657Z,101366.53
2022-12-06T17:12:58.038Z,101364.94
2022-12-06T17:15:59.604Z,101358.91
2022-12-06T17:19:01.853Z,101353.75
2022-12-06T17:22:04.587Z,101352.13
2022-12-06T17:25:06.762Z,101349.66
2022-12-06T17:28:08.256Z,101352.50
2022-12-06T17:31:10.251Z,101345.69
2022-12-06T17:34:13.840Z,101342.34
2022-12-06T17:37:15.390Z,101346.75
2022-12-06T17:40:16.939Z,101336.31
2022-12-06T17:43:18.840Z,101333.75
2022-12-06T17:46:20.393Z,101334.56
2022-12-06T17:49:24.499Z,101328.50
2022-12-06T17:52:26.262Z,101341.63
2022-12-06T17:55:27.798Z,101337.28
2022-12-06T17:58:29.323Z,101335.63
2022-12-06T18:01:58.084Z,101339.22
2022-12-06T18:04:55.355Z,101333.16
2022-12-06T18:07:56.939Z,101327.88
2022-12-06T18:10:59.390Z,101319.03
2022-12-06T18:14:01.667Z,101317.31
2022-12-06T18:17:03.854Z,101318.16
2022-12-06T18:20:06.119Z,101314.72
2022-12-06T18:23:07.881Z,101314.72
2022-12-06T18:26:13.131Z,101308.59
2022-12-06T18:29:20.751Z,101307.78
2022-12-06T18:32:22.492Z,101305.19
2022-12-06T18:35:24.079Z,101299.13
2022-12-06T18:38:26.240Z,101303.59
2022-12-06T18:41:31.629Z,101301.88
2022-12-06T18:44:33.308Z,101284.47
2022-12-06T18:47:34.925Z,101287.94
2022-12-06T18:50:41.059Z,101287.91
2022-12-06T18:53:43.370Z,101286.97
2022-12-06T18:56:44.970Z,101293.00
2022-12-06T18:59:48.219Z,101292.97
2022-12-06T19:02:49.894Z,101296.41
2022-12-06T19:06:02.852Z,101285.00
2022-12-06T19:09:09.450Z,101285.81
2022-12-06T19:12:11.035Z,101285.69
2022-12-06T19:15:13.456Z,101289.97
2022-12-06T19:18:14.982Z,101281.19
2022-12-06T19:21:17.597Z,101278.50
2022-12-06T19:24:22.207Z,101281.06
2022-12-06T19:27:23.733Z,101273.16
2022-12-06T19:30:25.395Z,101274.88
2022-12-06T19:33:27.711Z,101274.78
2022-12-06T19:36:31.487Z,101263.28
2022-12-06T19:39:33.068Z,101268.50
2022-12-06T19:42:53.580Z,101274.53
2022-12-06T19:45:55.130Z,101268.38
2022-12-06T19:49:02.718Z,101273.50
2022-12-06T19:52:04.450Z,101259.41
2022-12-06T19:55:06.760Z,101262.81
2022-12-06T19:58:11.216Z,101258.31
2022-12-06T20:01:23.486Z,101256.44
2022-12-06T20:04:29.158Z,101251.09
2022-12-06T20:07:31.876Z,101242.28
2022-12-06T20:10:36.408Z,101235.97
2022-12-06T20:13:37.954Z,101243.69
2022-12-06T20:16:40.072Z,101238.31
2022-12-06T20:19:46.458Z,101233.75
2022-12-06T20:22:48.072Z,101230.13
2022-12-06T20:25:50.959Z,101220.31
2022-12-06T20:28:52.687Z,101223.53
2022-12-06T20:31:57.878Z,101223.34
2022-12-06T20:34:59.648Z,101223.09
2022-12-06T20:38:01.432Z,101222.91
2022-12-06T20:41:10.804Z,101223.50
2022-12-06T20:44:12.487Z,101215.41
2022-12-06T20:47:14.240Z,101211.72
2022-12-06T20:50:16.364Z,101213.25
2022-12-06T20:53:17.884Z,101203.41
2022-12-06T20:56:22.181Z,101192.69
2022-12-06T20:59:23.916Z,101181.13
2022-12-06T21:02:25.673Z,101186.25
2022-12-06T21:05:27.234Z,101178.22
2022-12-06T21:08:29.942Z,101176.38
2022-12-06T21:11:31.826Z,101171.03
2022-12-06T21:14:33.444Z,101170.94
2022-12-06T21:17:35.040Z,101169.06
2022-12-06T21:20:39.965Z,101160.22
2022-12-06T21:23:41.472Z,101164.50
2022-12-06T21:26:43.668Z,101146.03
2022-12-06T21:29:45.219Z,101152.06
2022-12-06T21:32:46.771Z,101145.00
2022-12-06T21:35:49.212Z,101152.00
2022-12-06T21:38:50.975Z,101144.09
2022-12-06T21:41:53.970Z,101142.34
2022-12-06T21:44:55.592Z,101145.00
2022-12-06T21:47:57.116Z,101147.63
2022-12-06T21:51:04.839Z,101147.63
2022-12-06T21:54:06.420Z,101151.13
2022-12-06T21:57:07.952Z,101145.78
2022-12-06T22:00:09.943Z,101144.84
2022-12-06T22:03:11.519Z,101154.47
2022-12-06T22:06:13.522Z,101162.38
2022-12-06T22:09:15.115Z,101158.84
2022-12-06T22:12:16.958Z,101158.72
2022-12-06T22:15:18.519Z,101149.94
2022-12-06T22:18:20.066Z,101134.13
2022-12-06T22:21:25.404Z,101133.19
2022-12-06T22:24:26.910Z,101134.84
2022-12-06T22:27:28.449Z,101129.59
2022-12-06T22:30:29.995Z,101143.56
2022-12-06T22:33:32.431Z,101142.69
2022-12-06T22:36:34.067Z,101148.72
2022-12-06T22:39:35.595Z,101139.94
2022-12-06T22:42:37.178Z,101154.75
2022-12-06T22:45:38.682Z,101152.00
2022-12-06T22:48:41.277Z,101140.53
2022-12-06T22:51:42.789Z,101130.03
2022-12-06T22:54:44.324Z,101135.31
2022-12-06T22:57:45.833Z,101132.63
2022-12-06T23:00:47.324Z,101129.97
2022-12-06T23:03:50.468Z,101118.50
2022-12-06T23:06:52.036Z,101101.78
2022-12-06T23:09:53.568Z,101112.25
2022-12-06T23:12:55.102Z,101101.72
2022-12-06T23:16:02.734Z,101106.91
2022-12-06T23:19:04.837Z,101095.50
2022-12-06T23:22:06.363Z,101092.00
2022-12-06T23:25:08.503Z,101095.56
2022-12-06T23:28:10.011Z,101085.94
2022-12-06T23:31:14.435Z,101096.56
2022-12-06T23:34:20.469Z,101083.53
2022-12-06T23:37:22.003Z,101080.13
2022-12-06T23:40:23.597Z,101075.78
2022-12-06T23:43:25.098Z,101072.38
2022-12-06T23:46:30.176Z,101069.84
2022-12-06T23:49:31.922Z,101075.28
2022-12-06T23:52:34.000Z,101069.22
2022-12-06T23:55:35.843Z,101068.44
2022-12-06T23:58:38.340Z,101072.88
